SANTA FE DAM CA US current weather conditions

sailwx.info

Wind from 165 at 3 knots gusting 6

Air temperature 20.6° C
Dewpoint 15.3° C

Last reported at 2015-Jul-06 15:57 UTC.
Time now 2015-Jul-06 17:54 UTC

Location: N 34°08' W 117°57'.
View on Google Maps.

See reports from other nearby stations

  
Tides and Currents Weather Stations Pressure Air Temp Water Temp Dewpoint Dewpoint Depression Visibility Wind Speed Wind Dir Waves Ship Positions
date/time (UTC)wind fromknots sea level pressurealtimeterstation pressurevisibilityair tempwater tempwave heightnotes
2015-Jul-06 15:57 165 3 gusting 6 20.6
2015-Jul-06 14:57 221 1 gusting 5 21.1
2015-Jul-06 13:57 208 2 gusting 6 20.6
2015-Jul-06 12:57 233 2 gusting 5 20.6
2015-Jul-06 11:57 168 2 gusting 5 19.4
2015-Jul-06 10:57 218 2 gusting 6 20.6
2015-Jul-06 09:57 207 1 gusting 6 19.4
2015-Jul-06 08:57 219 2 gusting 6 20.6
2015-Jul-06 07:57 223 1 gusting 5 20.6
2015-Jul-06 06:57 233 1 gusting 5 20.6
2015-Jul-06 05:57 266 3 gusting 8 20.6
2015-Jul-06 04:57 228 3 gusting 8 18.9
2015-Jul-06 03:57 229 4 gusting 10 20.6
2015-Jul-06 02:57 231 6 gusting 11 22.8
2015-Jul-06 01:57 237 6 gusting 14 25.0
2015-Jul-06 00:57 240 7 gusting 15 28.3
2015-Jul-05 23:57 219 7 gusting 15 30.6
2015-Jul-05 22:57 222 7 gusting 16 31.1
2015-Jul-05 21:57 219 6 gusting 15 31.1
2015-Jul-05 20:57 253 6 gusting 15 28.9
2015-Jul-05 19:57 301 4 gusting 11 29.4
2015-Jul-05 18:57 221 3 gusting 8 26.7
2015-Jul-05 17:57 230 4 gusting 7 25.0
2015-Jul-05 16:57 257 3 gusting 6 22.2
2015-Jul-05 15:57 240 1 gusting 6 21.1
2015-Jul-05 14:57 212 1 gusting 5 20.6
2015-Jul-05 13:57 274 1 gusting 3 20.0
2015-Jul-05 12:57 197 1 gusting 4 18.9
2015-Jul-05 11:57 185 1 gusting 3 18.9
2015-Jul-05 10:57 222 1 gusting 5 19.4
2015-Jul-05 09:57 223 3 gusting 5 18.3
2015-Jul-05 08:57 222 2 gusting 4 18.3
2015-Jul-05 07:57 211 2 gusting 3 18.3
2015-Jul-05 06:57 216 2 gusting 4 17.8
2015-Jul-05 05:57 215 2 gusting 5 19.4
2015-Jul-05 04:57 218 3 gusting 6 19.4
2015-Jul-05 03:57 221 5 gusting 10 21.7
2015-Jul-05 02:57 229 6 gusting 13 23.9
2015-Jul-05 01:57 214 7 gusting 13 28.3
2015-Jul-05 00:57 238 6 gusting 13 29.4
2015-Jul-04 23:57 226 7 gusting 17 30.6
2015-Jul-04 22:57 212 9 gusting 16 31.1
2015-Jul-04 21:57 237 6 gusting 14 32.2
2015-Jul-04 20:57 221 6 gusting 13 31.1
2015-Jul-04 19:57 229 6 gusting 13 30.6
2015-Jul-04 18:57 222 6 gusting 13 28.9
2015-Jul-04 17:57 199 6 gusting 10 27.8